Time;durP1;ratioP1;P1;durP2;ratioP2;P2;SDS_P1;SDS_P2;PMS_P1;PMS_P2;Temp;Humidity;BMP_temperature;BMP_pressure;BME280_temperature;BME280_humidity;BME280_pressure;Samples;Min_cycle;Max_cycle;Signal;HPM_P1;HPM_P2
2021/09/20 00:00:30;;;;;;;0.93;0.52;;;;;;;10.34;100.00;100308.44;6339907;22;20026;-51
2021/09/20 00:03:33;;;;;;;0.80;0.35;;;;;;;10.29;100.00;100306.25;6338071;22;20465;-51
2021/09/20 00:06:36;;;;;;;2.90;0.95;;;;;;;10.20;100.00;100306.25;6337972;22;20025;-52
2021/09/20 00:09:39;;;;;;;3.50;0.52;;;;;;;10.12;100.00;100313.34;6338516;22;20030;-51
2021/09/20 00:12:42;;;;;;;12.40;0.60;;;;;;;10.04;100.00;100312.09;6339832;22;20366;-52
2021/09/20 00:15:45;;;;;;;0.60;0.60;;;;;;;9.94;100.00;100319.63;6339560;22;20523;-51
2021/09/20 00:18:48;;;;;;;0.80;0.80;;;;;;;9.91;100.00;100320.56;6339917;22;20037;-52
2021/09/20 00:21:51;;;;;;;0.73;0.47;;;;;;;9.97;100.00;100317.94;6339108;22;20080;-52
2021/09/20 00:24:55;;;;;;;4.10;0.65;;;;;;;9.98;100.00;100321.50;6339588;22;20095;-52
2021/09/20 00:27:58;;;;;;;1.30;1.20;;;;;;;10.05;100.00;100321.97;6338383;22;20080;-51
2021/09/20 00:31:02;;;;;;;4.68;0.95;;;;;;;10.00;100.00;100328.16;6339977;22;20026;-52
2021/09/20 00:34:05;;;;;;;1.88;0.85;;;;;;;10.02;100.00;100333.25;6339537;22;20083;-52
2021/09/20 00:37:09;;;;;;;3.47;1.02;;;;;;;10.02;100.00;100334.03;6320945;22;20079;-52
2021/09/20 00:40:13;;;;;;;0.45;0.35;;;;;;;10.04;100.00;100331.56;6339677;22;20021;-52
2021/09/20 00:43:17;;;;;;;0.68;0.40;;;;;;;10.02;100.00;100336.03;6339638;22;20026;-52
2021/09/20 00:46:20;;;;;;;3.45;0.70;;;;;;;10.02;100.00;100347.94;6339989;22;20064;-51
2021/09/20 00:49:22;;;;;;;0.60;0.52;;;;;;;10.01;100.00;100342.81;6339749;22;20128;-51
2021/09/20 00:52:25;;;;;;;19.50;1.30;;;;;;;10.07;100.00;100344.53;6339348;22;20021;-52
2021/09/20 00:55:29;;;;;;;2.80;0.93;;;;;;;10.15;100.00;100347.84;6339253;22;20068;-52
2021/09/20 00:58:33;;;;;;;3.05;0.68;;;;;;;10.19;100.00;100352.03;6339261;22;20068;-51
2021/09/20 01:01:36;;;;;;;0.88;0.68;;;;;;;10.22;100.00;100362.22;6339417;22;20026;-51
2021/09/20 01:04:39;;;;;;;3.30;0.70;;;;;;;10.21;100.00;100355.13;6339194;22;20022;-52
2021/09/20 01:07:42;;;;;;;0.60;0.50;;;;;;;10.33;100.00;100351.44;6339452;22;20025;-55
2021/09/20 01:10:45;;;;;;;1.77;0.35;;;;;;;10.37;100.00;100349.25;6338762;22;20539;-54
2021/09/20 01:13:48;;;;;;;1.65;0.63;;;;;;;10.32;100.00;100344.31;6339079;22;20073;-54
2021/09/20 01:16:51;;;;;;;4.30;1.00;;;;;;;10.33;100.00;100345.84;6339185;22;20026;-54
2021/09/20 01:19:54;;;;;;;2.15;0.63;;;;;;;10.34;100.00;100347.41;6339591;22;20048;-54
2021/09/20 01:23:02;;;;;;;0.88;0.45;;;;;;;10.24;100.00;100354.22;6339002;22;20022;-54
2021/09/20 01:26:05;;;;;;;1.60;0.85;;;;;;;10.15;100.00;100354.19;6339640;22;20075;-54
2021/09/20 01:29:08;;;;;;;2.85;0.85;;;;;;;10.04;100.00;100358.59;6339332;22;20079;-54
2021/09/20 01:32:12;;;;;;;0.90;0.30;;;;;;;9.97;100.00;100356.88;6339483;22;20049;-54
2021/09/20 01:35:20;;;;;;;2.90;0.60;;;;;;;9.85;100.00;100363.34;6339188;22;20087;-54
2021/09/20 01:38:23;;;;;;;2.72;0.43;;;;;;;9.76;100.00;100360.53;6339393;22;20041;-52
2021/09/20 01:41:33;;;;;;;7.05;1.15;;;;;;;9.74;100.00;100354.66;6338863;22;20077;-52
2021/09/20 01:44:36;;;;;;;1.17;0.38;;;;;;;9.70;100.00;100345.69;6339219;22;20022;-52
2021/09/20 01:47:39;;;;;;;0.65;0.60;;;;;;;9.74;100.00;100344.31;6339061;22;20025;-52
2021/09/20 01:50:43;;;;;;;1.55;0.70;;;;;;;9.75;100.00;100342.28;6339060;22;20022;-51
2021/09/20 01:53:46;;;;;;;6.13;1.42;;;;;;;9.72;100.00;100346.00;6338972;22;20022;-52
2021/09/20 01:56:49;;;;;;;1.10;0.50;;;;;;;9.70;100.00;100346.44;6339158;22;20026;-52
2021/09/20 01:59:52;;;;;;;2.92;0.85;;;;;;;9.67;100.00;100349.34;6338757;22;20057;-54
2021/09/20 02:02:55;;;;;;;0.45;0.20;;;;;;;9.63;100.00;100345.94;6338986;22;20025;-54
2021/09/20 02:05:58;;;;;;;0.93;0.57;;;;;;;9.55;100.00;100347.47;6338796;22;20095;-54
2021/09/20 02:09:03;;;;;;;1.75;0.90;;;;;;;9.51;100.00;100344.03;6338676;22;20379;-56
2021/09/20 02:12:05;;;;;;;0.40;0.40;;;;;;;9.45;100.00;100343.06;6338943;22;20441;-54
2021/09/20 02:15:09;;;;;;;1.05;0.43;;;;;;;9.42;100.00;100355.13;6338744;22;20045;-54
2021/09/20 02:18:12;;;;;;;5.07;0.90;;;;;;;9.27;100.00;100349.31;6338626;22;20022;-56
2021/09/20 02:21:15;;;;;;;0.52;0.52;;;;;;;9.18;100.00;100362.38;6338801;22;20025;-54
2021/09/20 02:24:18;;;;;;;0.43;0.20;;;;;;;9.08;100.00;100364.31;6338722;22;20022;-54
2021/09/20 02:27:22;;;;;;;2.65;1.00;;;;;;;9.01;100.00;100370.91;6338861;22;20110;-54
2021/09/20 02:30:25;;;;;;;2.67;0.77;;;;;;;8.97;100.00;100369.50;6338755;22;20038;-54
2021/09/20 02:33:28;;;;;;;1.15;0.35;;;;;;;8.98;100.00;100363.50;6338703;22;20037;-54
2021/09/20 02:36:31;;;;;;;1.48;0.70;;;;;;;8.79;100.00;100356.22;6338513;22;20021;-54
2021/09/20 02:39:34;;;;;;;0.52;0.52;;;;;;;7.37;100.00;100377.94;6338540;22;20633;-54
2021/09/20 02:42:37;;;;;;;4.35;0.88;;;;;;;8.17;100.00;100385.72;6319034;22;20056;-55
2021/09/20 02:45:40;;;;;;;0.75;0.55;;;;;;;8.89;100.00;100371.75;6338420;22;20048;-51
2021/09/20 02:48:42;;;;;;;1.55;0.60;;;;;;;9.00;100.00;100374.94;6338583;22;20081;-51
2021/09/20 02:51:45;;;;;;;6.97;0.93;;;;;;;8.99;100.00;100376.16;6338433;22;20098;-51
2021/09/20 02:54:48;;;;;;;1.40;0.63;;;;;;;9.07;100.00;100379.47;6338754;22;20022;-51
2021/09/20 02:57:51;;;;;;;0.70;0.70;;;;;;;9.00;100.00;100369.38;6338578;22;20156;-51
2021/09/20 03:00:54;;;;;;;2.75;1.15;;;;;;;9.18;100.00;100372.25;6338621;22;20088;-51
2021/09/20 03:03:56;;;;;;;0.65;0.47;;;;;;;9.06;100.00;100367.56;6338102;22;20044;-51
2021/09/20 03:06:59;;;;;;;5.25;1.02;;;;;;;9.04;100.00;100372.78;6338369;22;20104;-51
2021/09/20 03:10:03;;;;;;;2.92;0.55;;;;;;;9.01;100.00;100372.91;6338409;22;20025;-52
2021/09/20 03:13:06;;;;;;;0.43;0.22;;;;;;;8.97;100.00;100370.28;6319475;22;20063;-51
2021/09/20 03:16:09;;;;;;;1.83;0.88;;;;;;;8.94;100.00;100373.19;6338348;22;20025;-51
2021/09/20 03:19:12;;;;;;;1.63;0.85;;;;;;;8.88;100.00;100383.34;6338425;22;20508;-51
2021/09/20 03:22:14;;;;;;;0.38;0.38;;;;;;;8.89;100.00;100385.66;6340234;22;20033;-52
2021/09/20 03:25:18;;;;;;;0.95;0.80;;;;;;;8.83;100.00;100384.69;6339753;22;20462;-51
2021/09/20 03:28:21;;;;;;;2.42;0.73;;;;;;;8.83;100.00;100387.47;6340229;22;20087;-51
2021/09/20 03:31:24;;;;;;;2.38;0.57;;;;;;;8.68;100.00;100394.72;6340170;22;20072;-51
2021/09/20 03:34:27;;;;;;;1.23;0.50;;;;;;;8.54;100.00;100392.44;6338761;22;20064;-51
2021/09/20 03:37:30;;;;;;;0.20;0.20;;;;;;;8.49;100.00;100395.00;6339766;22;20025;-51
2021/09/20 03:40:33;;;;;;;1.92;1.38;;;;;;;8.39;100.00;100396.91;6339855;22;20022;-52
2021/09/20 03:43:37;;;;;;;0.57;0.45;;;;;;;8.41;100.00;100394.47;6340189;22;20040;-51
2021/09/20 03:46:40;;;;;;;2.40;0.43;;;;;;;8.39;100.00;100405.22;6339745;22;20516;-51
2021/09/20 03:49:43;;;;;;;0.38;0.38;;;;;;;8.36;100.00;100406.91;6339423;22;20105;-51
2021/09/20 03:52:47;;;;;;;5.07;1.02;;;;;;;8.33;100.00;100409.81;6339543;22;20641;-51
2021/09/20 03:55:50;;;;;;;1.98;1.00;;;;;;;8.33;100.00;100405.03;6339807;22;20064;-51
2021/09/20 03:58:54;;;;;;;2.50;0.85;;;;;;;8.33;100.00;100410.59;6340135;22;20022;-51
2021/09/20 04:01:57;;;;;;;0.85;0.52;;;;;;;8.34;100.00;100405.78;6340088;22;20022;-52
2021/09/20 04:04:59;;;;;;;1.95;0.65;;;;;;;8.46;100.00;100412.56;6339878;22;20090;-52
2021/09/20 04:08:02;;;;;;;1.17;0.65;;;;;;;8.50;100.00;100425.09;6339616;22;20488;-53
2021/09/20 04:11:06;;;;;;;1.70;0.45;;;;;;;8.53;100.00;100426.97;6339757;22;20057;-53
2021/09/20 04:14:09;;;;;;;1.70;0.77;;;;;;;8.49;100.00;100434.63;6339477;22;20156;-52
2021/09/20 04:17:12;;;;;;;1.65;0.57;;;;;;;8.46;100.00;100435.53;6339798;22;20147;-52
2021/09/20 04:20:15;;;;;;;0.88;0.63;;;;;;;8.39;100.00;100441.31;6339887;22;20026;-51
2021/09/20 04:23:21;;;;;;;2.15;0.65;;;;;;;8.29;100.00;100448.00;6339612;22;20097;-51
2021/09/20 04:26:24;;;;;;;1.08;0.90;;;;;;;8.26;100.00;100448.88;6339695;22;20076;-51
2021/09/20 04:29:27;;;;;;;0.88;0.80;;;;;;;8.29;100.00;100459.09;6339646;22;20022;-51
2021/09/20 04:32:31;;;;;;;0.90;0.77;;;;;;;8.33;100.00;100459.75;6339585;22;20026;-51
2021/09/20 04:35:34;;;;;;;1.83;1.08;;;;;;;8.41;100.00;100455.53;6339646;22;20041;-51
2021/09/20 04:38:37;;;;;;;0.73;0.70;;;;;;;8.51;100.00;100465.47;6339520;22;20026;-51
2021/09/20 04:41:41;;;;;;;3.35;1.20;;;;;;;8.54;100.00;100464.59;6339490;22;20022;-51
2021/09/20 04:44:44;;;;;;;1.05;0.43;;;;;;;8.57;100.00;100462.94;6339545;22;20024;-51
2021/09/20 04:47:47;;;;;;;1.35;0.75;;;;;;;8.52;100.00;100466.28;6339232;22;20053;-51
2021/09/20 04:50:52;;;;;;;12.23;1.02;;;;;;;8.63;100.00;100481.38;6339408;22;20068;-51
2021/09/20 04:53:55;;;;;;;2.08;1.20;;;;;;;8.67;100.00;100473.69;6339241;22;20374;-51
2021/09/20 04:56:58;;;;;;;0.82;0.38;;;;;;;8.74;100.00;100481.78;6339803;22;20025;-51
2021/09/20 05:00:07;;;;;;;0.80;0.65;;;;;;;8.74;100.00;100484.56;6339516;22;20025;-51
2021/09/20 05:03:10;;;;;;;1.30;0.80;;;;;;;8.84;100.00;100486.19;6339681;22;20461;-51
2021/09/20 05:06:13;;;;;;;3.05;0.85;;;;;;;8.87;100.00;100493.63;6339498;22;20022;-52
2021/09/20 05:09:17;;;;;;;4.88;1.35;;;;;;;8.88;100.00;100492.41;6339471;22;20053;-51
2021/09/20 05:12:20;;;;;;;1.10;0.52;;;;;;;8.92;100.00;100495.84;6338963;22;20072;-52
2021/09/20 05:15:23;;;;;;;1.08;0.40;;;;;;;8.96;100.00;100496.50;6339414;22;20021;-53
2021/09/20 05:18:26;;;;;;;1.70;0.60;;;;;;;9.00;100.00;100511.06;6339306;22;20079;-53
2021/09/20 05:21:29;;;;;;;0.93;0.93;;;;;;;9.12;100.00;100510.22;6339039;22;20021;-53
2021/09/20 05:24:32;;;;;;;3.83;0.80;;;;;;;9.23;100.00;100520.19;6339404;22;20140;-53
2021/09/20 05:27:36;;;;;;;1.85;0.50;;;;;;;9.30;100.00;100519.94;6339261;22;20022;-53
2021/09/20 05:30:39;;;;;;;4.07;0.73;;;;;;;9.40;100.00;100524.38;6339401;22;20101;-53
2021/09/20 05:33:42;;;;;;;1.17;0.75;;;;;;;9.53;100.00;100530.66;6339192;22;20564;-53
2021/09/20 05:36:45;;;;;;;2.92;0.73;;;;;;;9.61;100.00;100537.50;6339241;22;20021;-53
2021/09/20 05:39:48;;;;;;;1.08;0.88;;;;;;;9.70;100.00;100532.00;6339305;22;20022;-53
2021/09/20 05:42:59;;;;;;;0.60;0.60;;;;;;;9.84;100.00;100537.03;6339272;22;20322;-53
2021/09/20 05:46:02;;;;;;;2.10;1.20;;;;;;;9.91;100.00;100540.34;6338557;22;20025;-53
2021/09/20 05:49:04;;;;;;;2.90;0.90;;;;;;;10.03;100.00;100547.03;6339271;22;20714;-53
2021/09/20 05:52:07;;;;;;;0.75;0.75;;;;;;;10.08;100.00;100543.69;6339129;22;20067;-53
2021/09/20 05:55:12;;;;;;;0.82;0.43;;;;;;;10.18;100.00;100561.25;6339300;22;20034;-53
2021/09/20 05:58:15;;;;;;;1.52;0.73;;;;;;;10.23;100.00;100553.06;6338879;22;20036;-53
2021/09/20 06:01:19;;;;;;;4.38;1.15;;;;;;;10.25;100.00;100556.16;6338950;22;20026;-53
2021/09/20 06:04:23;;;;;;;7.43;1.95;;;;;;;10.31;100.00;100562.69;6338874;22;20068;-54
2021/09/20 06:07:26;;;;;;;2.45;1.20;;;;;;;10.39;100.00;100561.19;6338598;22;20068;-54
2021/09/20 06:10:29;;;;;;;3.83;1.13;;;;;;;10.43;100.00;100561.84;6338412;22;20072;-55
2021/09/20 06:13:32;;;;;;;12.55;2.05;;;;;;;10.56;100.00;100565.28;6338568;22;20152;-53
2021/09/20 06:16:35;;;;;;;7.55;2.65;;;;;;;10.66;100.00;100566.88;6338409;22;20389;-54
2021/09/20 06:19:39;;;;;;;32.63;2.85;;;;;;;10.75;100.00;100568.13;6338138;22;20102;-53
2021/09/20 06:22:42;;;;;;;6.20;2.22;;;;;;;10.73;100.00;100565.03;6338336;22;20429;-54
2021/09/20 06:25:45;;;;;;;18.73;1.23;;;;;;;10.74;100.00;100569.38;6319305;22;20071;-54
2021/09/20 06:28:48;;;;;;;2.15;1.38;;;;;;;10.75;100.00;100562.56;6338323;22;20061;-54
2021/09/20 06:31:50;;;;;;;16.98;1.55;;;;;;;10.72;100.00;100571.84;6338512;22;20050;-53
2021/09/20 06:34:53;;;;;;;5.72;0.77;;;;;;;10.73;100.00;100576.94;6337703;22;20025;-53
2021/09/20 06:37:57;;;;;;;2.80;1.40;;;;;;;10.70;100.00;100585.47;6337873;22;20466;-53
2021/09/20 06:41:01;;;;;;;11.60;1.75;;;;;;;10.72;100.00;100583.00;6337781;22;20045;-54
2021/09/20 06:44:04;;;;;;;1.50;0.60;;;;;;;10.81;100.00;100585.78;6338491;22;20021;-53
2021/09/20 06:47:09;;;;;;;2.60;1.42;;;;;;;10.85;100.00;100583.66;6337972;22;20366;-54
2021/09/20 06:50:13;;;;;;;1.58;0.52;;;;;;;10.94;100.00;100590.03;6338102;22;20068;-53
2021/09/20 06:53:16;;;;;;;7.47;1.27;;;;;;;11.09;100.00;100598.56;6338358;22;20087;-54
2021/09/20 06:56:19;;;;;;;2.33;1.52;;;;;;;11.19;100.00;100608.53;6338470;22;20025;-54
2021/09/20 06:59:21;;;;;;;18.55;2.55;;;;;;;11.33;100.00;100597.53;6338497;22;20073;-54
2021/09/20 07:02:25;;;;;;;0.40;0.38;;;;;;;11.49;100.00;100604.84;6338452;22;20072;-54
2021/09/20 07:05:28;;;;;;;5.22;1.75;;;;;;;11.46;100.00;100602.97;6337999;22;20026;-53
2021/09/20 07:08:31;;;;;;;5.80;1.92;;;;;;;11.46;100.00;100605.75;6338501;22;20025;-54
2021/09/20 07:11:34;;;;;;;2.67;0.95;;;;;;;11.47;100.00;100603.75;6338195;22;20474;-53
2021/09/20 07:14:37;;;;;;;4.10;1.10;;;;;;;11.41;100.00;100611.97;6338136;22;20121;-53
2021/09/20 07:17:42;;;;;;;3.40;0.60;;;;;;;11.34;100.00;100609.47;6338580;22;20019;-54
2021/09/20 07:20:46;;;;;;;12.43;2.13;;;;;;;11.44;100.00;100622.19;6338350;22;20573;-53
2021/09/20 07:23:51;;;;;;;2.03;1.15;;;;;;;11.48;100.00;100617.22;6338509;22;20094;-53
2021/09/20 07:26:54;;;;;;;1.42;1.10;;;;;;;11.57;100.00;100613.66;6338519;22;20080;-53
2021/09/20 07:29:57;;;;;;;7.90;1.10;;;;;;;11.63;100.00;100612.59;6338175;22;20101;-53
2021/09/20 07:33:00;;;;;;;2.17;0.40;;;;;;;11.75;100.00;100620.09;6338325;22;20079;-53
2021/09/20 07:36:04;;;;;;;1.48;0.95;;;;;;;11.84;100.00;100617.28;6338153;22;20022;-53
2021/09/20 07:39:07;;;;;;;4.22;1.33;;;;;;;11.84;100.00;100624.88;6338189;22;20474;-54
2021/09/20 07:42:10;;;;;;;2.47;0.40;;;;;;;11.17;100.00;100641.66;6337576;22;20038;-54
2021/09/20 07:45:14;;;;;;;5.25;0.77;;;;;;;11.65;100.00;100631.69;6338055;22;21001;-54
2021/09/20 07:48:17;;;;;;;3.92;0.65;;;;;;;11.56;100.00;100629.66;6338021;22;20021;-53
2021/09/20 07:51:20;;;;;;;1.30;0.77;;;;;;;11.61;100.00;100631.81;6338097;22;20504;-54
2021/09/20 07:54:24;;;;;;;2.70;0.85;;;;;;;11.62;100.00;100627.78;6337797;22;20018;-53
2021/09/20 07:57:27;;;;;;;3.53;0.90;;;;;;;11.63;100.00;100623.00;6338160;22;20517;-54
2021/09/20 08:00:30;;;;;;;1.35;0.73;;;;;;;11.69;100.00;100626.75;6318211;22;20075;-53
2021/09/20 08:03:33;;;;;;;0.68;0.68;;;;;;;11.74;100.00;100624.09;6318981;22;20504;-55
2021/09/20 08:06:36;;;;;;;1.30;0.60;;;;;;;11.79;100.00;100629.06;6338049;22;20381;-54
2021/09/20 08:09:39;;;;;;;1.08;0.88;;;;;;;11.72;100.00;100626.59;6339807;22;20022;-54
2021/09/20 08:12:42;;;;;;;1.52;0.55;;;;;;;11.85;100.00;100638.38;6340039;22;20068;-53
2021/09/20 08:15:45;;;;;;;1.83;0.60;;;;;;;12.02;100.00;100633.22;6339644;22;20030;-54
2021/09/20 08:18:48;;;;;;;0.85;0.38;;;;;;;12.16;100.00;100638.97;6340082;22;20026;-53
2021/09/20 08:21:52;;;;;;;4.90;1.63;;;;;;;12.26;100.00;100641.75;6339368;22;20022;-54
2021/09/20 08:24:55;;;;;;;4.50;1.52;;;;;;;12.33;100.00;100641.41;6339203;22;20075;-54
2021/09/20 08:27:58;;;;;;;1.40;0.70;;;;;;;12.46;100.00;100644.81;6320470;22;20068;-54
2021/09/20 08:31:01;;;;;;;1.58;0.20;;;;;;;12.58;100.00;100647.41;6339824;22;20458;-54
2021/09/20 08:34:05;;;;;;;2.85;0.93;;;;;;;12.66;100.00;100648.66;6338735;22;20057;-51
2021/09/20 08:37:07;;;;;;;2.33;0.50;;;;;;;12.84;100.00;100653.41;6318281;22;20347;-51
2021/09/20 08:40:11;;;;;;;0.20;0.20;;;;;;;12.85;100.00;100654.94;6337518;22;20026;-51
2021/09/20 08:43:14;;;;;;;2.90;0.40;;;;;;;12.86;100.00;100656.50;6338551;22;20282;-51
2021/09/20 08:46:18;;;;;;;3.20;0.50;;;;;;;12.90;100.00;100666.28;6318677;22;20021;-51
2021/09/20 08:49:23;;;;;;;0.10;0.10;;;;;;;13.01;100.00;100668.56;6338352;22;20045;-51
2021/09/20 08:52:26;;;;;;;0.82;0.70;;;;;;;13.07;100.00;100669.47;6339245;22;20021;-51
2021/09/20 08:55:32;;;;;;;0.45;0.45;;;;;;;13.16;100.00;100672.25;6339465;22;20525;-51
2021/09/20 08:58:35;;;;;;;0.65;0.63;;;;;;;13.22;100.00;100673.13;6339080;22;20029;-51
2021/09/20 09:01:42;;;;;;;0.47;0.40;;;;;;;13.39;100.00;100684.69;6338847;22;20165;-51
2021/09/20 09:04:45;;;;;;;0.60;0.60;;;;;;;13.50;100.00;100679.34;6338550;22;20339;-51
2021/09/20 09:08:00;;;;;;;0.73;0.45;;;;;;;13.59;100.00;100679.31;6338761;22;20075;-51
2021/09/20 09:11:14;;;;;;;1.65;0.28;;;;;;;13.72;100.00;100690.25;6339127;22;20446;-51
2021/09/20 09:14:18;;;;;;;0.50;0.50;;;;;;;13.83;100.00;100682.09;6339461;22;20045;-51
2021/09/20 09:17:26;;;;;;;2.53;0.40;;;;;;;13.94;100.00;100694.31;6339258;22;20096;-51
2021/09/20 09:20:35;;;;;;;1.88;0.38;;;;;;;14.08;100.00;100703.97;6339247;22;20468;-54
2021/09/20 09:23:40;;;;;;;0.20;0.20;;;;;;;14.17;100.00;100701.09;6339241;22;20025;-54
2021/09/20 09:27:03;;;;;;;1.05;0.20;;;;;;;14.26;100.00;100703.84;6320233;22;20022;-54
2021/09/20 09:30:22;;;;;;;2.03;0.68;;;;;;;14.35;100.00;100703.78;6339010;22;20057;-54
2021/09/20 09:33:36;;;;;;;0.20;0.10;;;;;;;14.48;100.00;100703.50;6339328;22;20071;-54
2021/09/20 09:36:41;;;;;;;0.10;0.10;;;;;;;14.57;100.00;100712.63;6339173;22;20362;-54
2021/09/20 09:39:44;;;;;;;2.28;0.20;;;;;;;14.69;100.00;100717.16;6339053;22;20056;-54
2021/09/20 09:42:51;;;;;;;0.10;0.10;;;;;;;14.89;100.00;100720.06;6339300;22;20038;-54
2021/09/20 09:45:57;;;;;;;2.17;0.32;;;;;;;15.01;100.00;100730.19;6338878;22;20041;-54
2021/09/20 09:49:10;;;;;;;0.10;0.10;;;;;;;15.08;100.00;100729.81;6320102;22;20072;-54
2021/09/20 09:52:20;;;;;;;0.30;0.20;;;;;;;15.19;100.00;100718.78;6319857;22;20121;-55
2021/09/20 09:55:24;;;;;;;0.20;0.17;;;;;;;15.31;100.00;100724.56;6338719;22;20018;-55
2021/09/20 09:58:29;;;;;;;0.10;0.10;;;;;;;15.49;100.00;100724.34;6338778;22;20462;-55
2021/09/20 10:01:40;;;;;;;6.15;0.45;;;;;;;15.66;100.00;100728.16;6338967;22;20378;-55
2021/09/20 10:04:56;;;;;;;2.28;0.20;;;;;;;15.72;100.00;100729.03;6338888;22;20022;-56
2021/09/20 10:07:59;;;;;;;0.10;0.10;;;;;;;15.81;100.00;100729.66;6339119;22;20037;-55
2021/09/20 10:11:01;;;;;;;0.10;0.10;;;;;;;15.92;100.00;100740.25;6339439;22;20026;-56
2021/09/20 10:14:06;;;;;;;0.10;0.10;;;;;;;15.97;100.00;100731.13;6339006;22;20359;-56
2021/09/20 10:17:15;;;;;;;0.20;0.10;;;;;;;16.06;100.00;100730.22;6339378;22;20336;-56
2021/09/20 10:20:25;;;;;;;0.20;0.10;;;;;;;16.14;100.00;100734.91;6339218;22;20106;-56
2021/09/20 10:23:28;;;;;;;1.17;0.20;;;;;;;16.30;100.00;100737.16;6339328;22;20026;-56
2021/09/20 10:26:31;;;;;;;0.20;0.13;;;;;;;16.30;100.00;100725.94;6338764;22;20026;-56
2021/09/20 10:29:34;;;;;;;1.40;0.20;;;;;;;16.39;100.00;100728.59;6338653;22;20343;-56
2021/09/20 10:32:40;;;;;;;0.63;0.10;;;;;;;16.37;100.00;100733.16;6338835;22;20025;-56
2021/09/20 10:35:54;;;;;;;1.92;0.30;;;;;;;16.45;100.00;100737.84;6338188;22;20465;-56
2021/09/20 10:38:57;;;;;;;0.52;0.10;;;;;;;16.51;100.00;100730.28;6338790;22;20473;-56
2021/09/20 10:42:00;;;;;;;0.63;0.25;;;;;;;16.60;100.00;100732.94;6338689;22;20026;-56
2021/09/20 10:45:05;;;;;;;0.50;0.20;;;;;;;16.73;100.00;100734.56;6338809;22;20030;-56
2021/09/20 10:48:15;;;;;;;2.47;0.22;;;;;;;16.80;100.00;100734.91;6338667;22;20489;-56
2021/09/20 10:51:36;;;;;;;0.65;0.20;;;;;;;16.86;100.00;100734.94;6338618;22;20026;-56
2021/09/20 10:54:39;;;;;;;8.40;0.40;;;;;;;16.92;100.00;100732.94;6338455;22;20036;-57
2021/09/20 10:57:42;;;;;;;0.52;0.10;;;;;;;16.99;100.00;100735.31;6338931;22;20496;-57
2021/09/20 11:00:44;;;;;;;2.92;0.30;;;;;;;17.16;100.00;100727.78;6338796;22;20049;-56
2021/09/20 11:04:09;;;;;;;0.30;0.10;;;;;;;17.13;100.00;100740.81;6319811;22;20056;-56
2021/09/20 11:07:20;;;;;;;2.20;0.40;;;;;;;17.22;100.00;100725.78;6338265;22;20030;-57
2021/09/20 11:10:34;;;;;;;2.40;0.40;;;;;;;17.37;100.00;100732.81;6338729;22;20094;-56
2021/09/20 11:14:01;;;;;;;2.10;0.28;;;;;;;17.48;100.00;100740.56;6338497;22;20026;-57
2021/09/20 11:17:33;;;;;;;0.32;0.20;;;;;;;17.41;100.00;100738.22;6339023;22;20044;-56
2021/09/20 11:20:41;;;;;;;3.80;0.35;;;;;;;17.44;100.00;100742.84;6338146;22;20057;-57
2021/09/20 11:23:45;;;;;;;0.60;0.20;;;;;;;17.48;100.00;100740.56;6338413;22;20026;-57
2021/09/20 11:26:48;;;;;;;1.75;0.10;;;;;;;17.51;100.00;100753.69;6338691;22;20071;-57
2021/09/20 11:29:58;;;;;;;0.40;0.20;;;;;;;17.60;100.00;100750.69;6337588;22;20068;-57
2021/09/20 11:33:08;;;;;;;0.10;0.00;;;;;;;17.67;100.00;100747.38;6338776;22;20025;-56
2021/09/20 11:36:14;;;;;;;0.20;0.10;;;;;;;17.70;100.00;100749.19;6338382;22;20099;-57
2021/09/20 11:39:19;;;;;;;0.40;0.30;;;;;;;17.80;100.00;100752.59;6338016;22;20351;-57
2021/09/20 11:42:25;;;;;;;0.32;0.30;;;;;;;17.89;100.00;100758.00;6339548;22;20072;-57
2021/09/20 11:45:34;;;;;;;10.02;0.65;;;;;;;17.90;100.00;100757.50;6339644;22;20025;-57
2021/09/20 11:48:37;;;;;;;0.55;0.10;;;;;;;17.95;100.00;100753.19;6339551;22;20037;-57
2021/09/20 11:51:40;;;;;;;0.20;0.20;;;;;;;18.02;100.00;100758.31;6339830;22;20082;-57
2021/09/20 11:54:48;;;;;;;1.65;0.55;;;;;;;18.09;100.00;100758.63;6340104;22;20064;-53
2021/09/20 11:57:56;;;;;;;0.20;0.20;;;;;;;18.12;100.00;100757.63;6340531;22;20037;-53
2021/09/20 12:00:59;;;;;;;1.27;0.10;;;;;;;18.19;100.00;100759.94;6340498;22;20340;-54
2021/09/20 12:04:03;;;;;;;0.63;0.32;;;;;;;18.23;100.00;100756.13;6340491;22;20072;-57
2021/09/20 12:07:06;;;;;;;1.85;0.17;;;;;;;18.30;100.00;100761.28;6340371;22;20065;-57
2021/09/20 12:10:09;;;;;;;1.27;0.15;;;;;;;18.27;100.00;100767.94;6340322;22;20026;-57
2021/09/20 12:13:31;;;;;;;0.35;0.10;;;;;;;18.00;100.00;100761.66;6340063;22;20075;-57
2021/09/20 12:16:34;;;;;;;0.10;0.00;;;;;;;17.95;100.00;100770.84;6340268;22;20021;-57
2021/09/20 12:19:51;;;;;;;1.98;0.30;;;;;;;18.00;100.00;100758.84;6339352;22;20026;-57
2021/09/20 12:22:56;;;;;;;0.40;0.22;;;;;;;17.92;100.00;100752.13;6339151;22;20026;-57
2021/09/20 12:26:01;;;;;;;1.85;0.73;;;;;;;17.88;100.00;100760.06;6339169;22;20090;-52
2021/09/20 12:29:08;;;;;;;0.10;0.10;;;;;;;17.85;100.00;100752.59;6339318;22;20483;-53
2021/09/20 12:32:19;;;;;;;0.70;0.32;;;;;;;17.86;100.00;100756.97;6339109;22;20327;-52
2021/09/20 12:35:29;;;;;;;5.63;0.38;;;;;;;17.92;100.00;100749.31;6339126;22;20022;-52
2021/09/20 12:38:35;;;;;;;0.20;0.10;;;;;;;18.03;100.00;100749.38;6338386;22;20068;-57
2021/09/20 12:42:08;;;;;;;1.73;0.00;;;;;;;18.09;100.00;100753.00;6339250;22;20084;-57
2021/09/20 12:45:19;;;;;;;0.60;0.30;;;;;;;18.19;100.00;100756.38;6339559;22;20057;-57
2021/09/20 12:48:34;;;;;;;0.45;0.20;;;;;;;18.28;100.00;100752.56;6321104;22;20026;-52
2021/09/20 12:51:42;;;;;;;1.33;0.55;;;;;;;18.30;100.00;100752.81;6339735;22;20021;-52
2021/09/20 12:54:49;;;;;;;5.15;0.28;;;;;;;18.31;100.00;100751.53;6339848;22;20045;-51
2021/09/20 12:57:55;;;;;;;0.10;0.00;;;;;;;18.14;100.00;100748.66;6339903;22;20025;-51
2021/09/20 13:00:58;;;;;;;0.10;0.10;;;;;;;18.25;100.00;100754.34;6320681;22;20025;-52
2021/09/20 13:04:02;;;;;;;3.70;0.22;;;;;;;18.40;100.00;100754.13;6340039;22;20037;-50
2021/09/20 13:07:21;;;;;;;0.55;0.20;;;;;;;18.55;100.00;100754.72;6339934;22;20323;-52
2021/09/20 13:10:31;;;;;;;0.20;0.10;;;;;;;18.58;100.00;100762.19;6339788;22;20026;-50
2021/09/20 13:13:36;;;;;;;0.10;0.10;;;;;;;18.59;100.00;100758.06;6339557;22;20080;-51
2021/09/20 13:16:39;;;;;;;2.17;0.20;;;;;;;18.62;100.00;100765.50;6339347;22;20496;-51
2021/09/20 13:20:09;;;;;;;0.22;0.10;;;;;;;18.76;100.00;100764.50;6339699;22;20038;-52
2021/09/20 13:23:14;;;;;;;0.17;0.08;;;;;;;18.77;100.00;100766.84;6339782;22;20059;-51
2021/09/20 13:26:30;;;;;;;1.00;0.28;;;;;;;18.74;100.00;100773.50;6339255;22;20021;-50
2021/09/20 13:29:33;;;;;;;0.50;0.20;;;;;;;18.87;100.00;100764.53;6339764;22;20021;-52
2021/09/20 13:32:35;;;;;;;3.40;0.10;;;;;;;18.99;100.00;100768.91;6339673;22;20047;-52
2021/09/20 13:35:43;;;;;;;8.25;0.47;;;;;;;19.06;100.00;100770.47;6339628;22;20515;-56
2021/09/20 13:38:46;;;;;;;1.95;0.10;;;;;;;19.23;100.00;100762.78;6339466;22;20099;-57
2021/09/20 13:41:50;;;;;;;1.70;0.40;;;;;;;19.38;100.00;100764.06;6338642;22;20022;-56
2021/09/20 13:44:53;;;;;;;0.63;0.22;;;;;;;19.48;100.00;100773.81;6339140;22;20085;-57
2021/09/20 13:47:56;;;;;;;2.65;0.47;;;;;;;19.62;100.00;100766.38;6338934;22;20057;-57
2021/09/20 13:50:59;;;;;;;1.02;0.47;;;;;;;19.75;100.00;100760.19;6339287;22;20037;-56
2021/09/20 13:54:04;;;;;;;0.43;0.20;;;;;;;20.00;100.00;100770.38;6339234;22;20430;-56
2021/09/20 13:57:07;;;;;;;1.20;0.30;;;;;;;20.16;100.00;100761.81;6339061;22;20029;-56
2021/09/20 14:00:12;;;;;;;0.47;0.10;;;;;;;20.36;100.00;100763.56;6338299;22;20445;-56
2021/09/20 14:03:15;;;;;;;0.20;0.10;;;;;;;20.43;100.00;100754.53;6338402;22;20040;-54
2021/09/20 14:06:19;;;;;;;0.63;0.17;;;;;;;20.31;100.00;100759.47;6338317;22;20022;-55
2021/09/20 14:09:22;;;;;;;4.78;0.65;;;;;;;20.27;100.00;100749.75;6338184;22;20071;-56
2021/09/20 14:12:25;;;;;;;1.15;0.35;;;;;;;20.18;100.00;100738.69;6339125;22;20072;-56